Mudgee, Australia
Current Conditions -  °F | °C
As of 2:00 AM on Thursday 27 Nov 2014 (Local Time) from YMDG Reporting Station
Clear Clear  
Wind Chill: 66°   Ceiling: Unl
Heat Index: 66°   Visibility: NA
Dew Point: 61°   Wind: 10mph
Humidity: 83%   Direction: 170°S
Pressure: 30.03"   Gusts: NA
Location:  32.59°S, 149.59°E
Report Text: YMDG 261500Z AUTO 17009KT //// // NCD 19/16 Q1017
Loading
Personal Weather Stations






























Interactive Weather Map New forecast layout! Learn more

10-Day Weather Forecast

Advertisements
Track Severe Weather on mobile